Terminal Aerodrome Forecast
Issued by NWS

Home | Current Version | Previous Version | Text Only | Print | Product List | Glossary On
Versions: 1 2 3 4 5 6 7 8 9 10 11 12 13 14
949
FTUS45 KTFX 120539
TAFCTB
TAF
KCTB 120539Z 1206/1306 25009KT P6SM SCT200
     FM121100 26015KT P6SM SCT200
     FM121500 27025G35KT P6SM SCT200
      TEMPO 1219/1222 26035G50KT
     FM130000 26017G25KT P6SM SCT150=

USA.gov is the U.S. government's official web portal to all federal, state and local government web resources and services.